Portada
METAR-TAF:

METAR-TAF

Aeroports :

Kazan, Rússia

latitud: 55-47N, longitud: 049-12E, altitud: 125 m

Observació

L'informe es va fer fa 41 minuts, a les 22:00 UTC
Vent 4 kt del Oest
Temperatura 14°C
Humitat 77%
Pressió 1020 hPa
Visibilitat 10 km o més
Núvols disperses a una alçada de 5000 ft, Cumulonimbus.

METAR: UWKD 252200Z 28002MPS 9999 SCT050CB 14/10 Q1020 R29/2/0050 NOSIG RMK QFE754/1005

Hora: 01:41 (22:41 UTC)

Pronòstic

L'informe es va fer fa 2 hores i 41 minuts, a les 20:00 UTC
Pronòstic vàlid del 25 a les 21 UTC al 26 a les 21 UTC
Vent 6 kt del Nord
Visibilitat 10 km o més
Núvols disperses a una alçada de 2000 ft
Evolucionant progressivament
l' 26 a les 06 UTC al 26 a les 08 UTC
Vent 12 kt del Nord/Nord-Oest amb ràfegues de 23 kt

TAF: UWKD 252000Z 2521/2621 35003MPS 9999 SCT020 TX20/2611Z TN11/2601Z BECMG 2606/2608 33006G12MPS

Observacions i pronòstics meteorològics de més de 4000 aeroports (METAR i TAF).

Les estacions disponibles són els punts grocs i vermells al mapa.

Posi el ratolí al punt desitjat per veure el nom de l'estació.

Feu clic per veure les observacions i els pronòstics meteorològics.

Per canviar el mapa: feu clic els botons verds amb una creu de color negre per apropar; al botó verd amb un guió per allunyar la imatge; o en les fletxes verdes per a mapes adjacents.


METAR-TAF: